createdAt,value
2019-05-21T00:02:15.264Z,15.68
2019-05-21T00:04:49.200Z,15.66
2019-05-21T00:07:20.885Z,15.46
2019-05-21T00:09:54.212Z,15.53
2019-05-21T00:12:29.950Z,15.48
2019-05-21T00:15:02.836Z,15.50
2019-05-21T00:17:36.642Z,15.57
2019-05-21T00:20:10.490Z,15.60
2019-05-21T00:22:44.161Z,15.60
2019-05-21T00:25:17.507Z,15.52
2019-05-21T00:27:49.225Z,15.48
2019-05-21T00:30:58.850Z,15.48
2019-05-21T00:34:06.214Z,15.52
2019-05-21T00:37:20.498Z,15.55
2019-05-21T00:40:28.644Z,15.44
2019-05-21T00:43:01.565Z,15.34
2019-05-21T00:45:34.627Z,15.19
2019-05-21T00:48:08.194Z,15.17
2019-05-21T00:50:40.957Z,15.20
2019-05-21T00:53:13.037Z,15.18
2019-05-21T00:55:49.681Z,15.26
2019-05-21T00:58:21.444Z,15.31
2019-05-21T01:00:54.807Z,15.36
2019-05-21T01:03:27.218Z,15.36
2019-05-21T01:06:01.960Z,15.44
2019-05-21T01:08:36.546Z,15.48
2019-05-21T01:11:10.915Z,15.50
2019-05-21T01:13:46.544Z,15.45
2019-05-21T01:16:18.703Z,15.47
2019-05-21T01:18:51.104Z,15.40
2019-05-21T01:21:24.599Z,15.28
2019-05-21T01:23:57.487Z,15.14
2019-05-21T01:26:29.807Z,15.09
2019-05-21T01:29:07.639Z,15.07
2019-05-21T01:31:39.288Z,15.05
2019-05-21T01:34:12.219Z,15.09
2019-05-21T01:36:45.167Z,15.10
2019-05-21T01:39:17.684Z,15.02
2019-05-21T01:41:49.641Z,15.01
2019-05-21T01:44:24.949Z,14.94
2019-05-21T01:46:58.984Z,15.00
2019-05-21T01:49:31.767Z,15.04
2019-05-21T01:52:03.878Z,15.06
2019-05-21T01:54:36.926Z,15.07
2019-05-21T01:57:08.659Z,15.04
2019-05-21T01:59:41.461Z,14.99
2019-05-21T02:02:14.840Z,14.95
2019-05-21T02:04:49.025Z,14.93
2019-05-21T02:07:21.279Z,14.96
2019-05-21T02:09:59.724Z,14.95
2019-05-21T02:12:32.102Z,14.80
2019-05-21T02:15:08.866Z,14.80
2019-05-21T02:17:43.160Z,14.83
2019-05-21T02:20:16.899Z,14.76
2019-05-21T02:22:50.074Z,14.67
2019-05-21T02:25:22.716Z,14.57
2019-05-21T02:27:55.059Z,14.55
2019-05-21T02:30:29.818Z,14.57
2019-05-21T02:33:02.704Z,14.63
2019-05-21T02:35:52.865Z,14.68
2019-05-21T02:38:10.451Z,14.68
2019-05-21T02:40:46.069Z,14.68
2019-05-21T02:43:18.069Z,14.68
2019-05-21T02:45:50.118Z,14.71
2019-05-21T02:48:22.870Z,14.72
2019-05-21T02:50:54.598Z,14.73
2019-05-21T02:53:27.034Z,14.75
2019-05-21T02:55:59.743Z,14.78
2019-05-21T02:58:32.403Z,14.80
2019-05-21T03:01:27.895Z,14.83
2019-05-21T03:03:59.870Z,14.69
2019-05-21T03:06:32.358Z,14.60
2019-05-21T03:09:09.987Z,14.55
2019-05-21T03:11:44.385Z,14.49
2019-05-21T03:14:19.083Z,14.45
2019-05-21T03:16:52.395Z,14.48
2019-05-21T03:19:26.763Z,14.51
2019-05-21T03:22:00.636Z,14.46
2019-05-21T03:24:33.980Z,14.38
2019-05-21T03:27:07.771Z,14.26
2019-05-21T03:29:41.121Z,14.39
2019-05-21T03:32:14.359Z,14.47
2019-05-21T03:34:47.588Z,14.56
2019-05-21T03:37:19.202Z,14.65
2019-05-21T03:39:51.510Z,14.72
2019-05-21T03:42:23.959Z,14.74
2019-05-21T03:45:00.531Z,14.65
2019-05-21T03:47:33.956Z,14.70
2019-05-21T03:50:07.894Z,14.75
2019-05-21T03:52:42.101Z,14.63
2019-05-21T03:55:16.775Z,14.72
2019-05-21T03:57:50.736Z,14.71
2019-05-21T04:00:25.951Z,14.74
2019-05-21T04:03:00.232Z,14.71
2019-05-21T04:05:32.179Z,14.71
2019-05-21T04:08:04.580Z,14.79
2019-05-21T04:10:38.287Z,14.79
2019-05-21T04:13:10.840Z,14.83
2019-05-21T04:16:17.002Z,14.88
2019-05-21T04:19:03.119Z,14.92
2019-05-21T04:21:38.822Z,14.97
2019-05-21T04:24:13.819Z,15.01
2019-05-21T04:26:47.218Z,15.07
2019-05-21T04:29:21.077Z,15.11
2019-05-21T04:31:54.711Z,15.11
2019-05-21T04:34:30.256Z,15.13
2019-05-21T04:37:10.508Z,15.14
2019-05-21T04:39:39.454Z,15.22
2019-05-21T04:42:14.829Z,15.28
2019-05-21T04:44:47.168Z,15.36
2019-05-21T04:47:23.861Z,15.39
2019-05-21T04:49:57.554Z,15.41
2019-05-21T04:52:30.654Z,15.34
2019-05-21T04:55:06.563Z,15.26
2019-05-21T04:57:40.474Z,15.07
2019-05-21T05:00:13.814Z,15.00
2019-05-21T05:02:48.248Z,15.04
2019-05-21T05:05:22.057Z,15.14
2019-05-21T05:07:53.665Z,15.20
2019-05-21T05:10:26.229Z,15.10
2019-05-21T05:12:57.851Z,15.10
2019-05-21T05:15:31.924Z,15.03
2019-05-21T05:18:03.532Z,14.89
2019-05-21T05:20:36.429Z,14.93
2019-05-21T05:23:08.366Z,14.82
2019-05-21T05:25:40.127Z,14.82
2019-05-21T05:28:11.806Z,14.75
2019-05-21T05:30:43.657Z,14.73
2019-05-21T05:33:16.319Z,14.66
2019-05-21T05:35:48.244Z,14.57
2019-05-21T05:38:20.538Z,14.54
2019-05-21T05:40:52.399Z,14.77
2019-05-21T05:43:24.397Z,14.86
2019-05-21T05:45:56.543Z,15.02
2019-05-21T05:48:29.417Z,15.16
2019-05-21T05:51:03.256Z,15.27
2019-05-21T05:53:53.978Z,15.30
2019-05-21T05:56:25.706Z,15.37
2019-05-21T05:58:58.416Z,15.39
2019-05-21T06:01:33.016Z,15.45
2019-05-21T06:04:05.536Z,15.45
2019-05-21T06:06:37.307Z,15.47
2019-05-21T06:09:09.255Z,15.38
2019-05-21T06:11:41.193Z,15.47
2019-05-21T06:14:13.096Z,15.67
2019-05-21T06:16:45.226Z,15.86
2019-05-21T06:19:17.870Z,16.05
2019-05-21T06:21:49.793Z,16.06
2019-05-21T06:24:21.974Z,15.93
2019-05-21T06:26:53.920Z,15.78
2019-05-21T06:29:26.023Z,15.89
2019-05-21T06:31:58.805Z,16.10
2019-05-21T06:34:32.290Z,16.28
2019-05-21T06:37:05.201Z,16.34
2019-05-21T06:39:37.413Z,16.26
2019-05-21T06:42:10.660Z,16.25
2019-05-21T06:44:42.931Z,16.52
2019-05-21T06:47:14.938Z,16.50
2019-05-21T06:49:51.564Z,16.38
2019-05-21T06:52:24.336Z,16.45
2019-05-21T06:54:56.630Z,16.54
2019-05-21T06:57:29.209Z,16.60
2019-05-21T07:00:03.049Z,16.80
2019-05-21T07:02:35.595Z,16.84
2019-05-21T07:05:08.535Z,16.86
2019-05-21T07:07:40.933Z,16.58
2019-05-21T07:10:15.157Z,16.55
2019-05-21T07:12:47.936Z,16.68
2019-05-21T07:15:20.369Z,16.77
2019-05-21T07:17:55.026Z,16.87
2019-05-21T07:20:27.304Z,16.91
2019-05-21T07:23:00.271Z,16.75
2019-05-21T07:25:33.355Z,16.79
2019-05-21T07:28:08.912Z,16.87
2019-05-21T07:30:40.898Z,16.76
2019-05-21T07:33:12.786Z,16.50
2019-05-21T07:35:47.274Z,16.47
2019-05-21T07:38:20.979Z,16.52
2019-05-21T07:40:53.049Z,16.58
2019-05-21T07:43:25.368Z,16.41
2019-05-21T07:45:58.515Z,16.29
2019-05-21T07:48:31.184Z,16.03
2019-05-21T07:51:03.121Z,16.47
2019-05-21T07:53:35.684Z,16.66
2019-05-21T07:56:10.432Z,16.84
2019-05-21T07:58:43.379Z,16.95
2019-05-21T08:01:20.550Z,17.07
2019-05-21T08:03:55.148Z,16.89
2019-05-21T08:06:29.750Z,16.99
2019-05-21T08:09:13.418Z,16.84
2019-05-21T08:11:39.408Z,16.93
2019-05-21T08:14:12.770Z,17.14
2019-05-21T08:16:45.471Z,17.18
2019-05-21T08:19:17.972Z,17.29
2019-05-21T08:21:50.542Z,17.21
2019-05-21T08:24:23.738Z,17.33
2019-05-21T08:26:56.700Z,17.46
2019-05-21T08:29:28.544Z,17.50
2019-05-21T08:32:01.174Z,17.47
2019-05-21T08:34:34.007Z,17.23
2019-05-21T08:37:06.768Z,17.08
2019-05-21T08:39:38.997Z,17.38
2019-05-21T08:42:10.581Z,17.49
2019-05-21T08:44:42.642Z,17.34
2019-05-21T08:47:15.033Z,17.48
2019-05-21T08:49:46.637Z,17.44
2019-05-21T08:52:18.880Z,17.44
2019-05-21T08:54:51.428Z,17.58
2019-05-21T08:57:23.237Z,17.61
2019-05-21T08:59:55.793Z,17.71
2019-05-21T09:02:27.555Z,17.64
2019-05-21T09:05:00.179Z,17.77
2019-05-21T09:07:32.102Z,17.95
2019-05-21T09:10:04.498Z,17.94
2019-05-21T09:12:36.308Z,18.01
2019-05-21T09:15:10.250Z,18.16
2019-05-21T09:17:42.485Z,17.81
2019-05-21T09:20:16.023Z,18.12
2019-05-21T09:22:48.295Z,17.79
2019-05-21T09:25:21.161Z,17.84
2019-05-21T09:27:53.274Z,17.84
2019-05-21T09:30:25.810Z,18.09
2019-05-21T09:32:58.108Z,17.51
2019-05-21T09:35:29.787Z,17.71
2019-05-21T09:38:02.055Z,17.95
2019-05-21T09:40:34.076Z,18.12
2019-05-21T09:43:06.734Z,18.06
2019-05-21T09:45:38.649Z,17.89
2019-05-21T09:48:10.590Z,18.01
2019-05-21T09:50:42.362Z,18.18
2019-05-21T09:53:15.379Z,18.17
2019-05-21T09:55:47.232Z,18.12
2019-05-21T09:58:27.946Z,18.03
2019-05-21T10:01:14.049Z,17.93
2019-05-21T10:03:50.018Z,18.15
2019-05-21T10:06:21.962Z,18.53
2019-05-21T10:08:54.105Z,18.33
2019-05-21T10:11:27.816Z,18.16
2019-05-21T10:14:00.374Z,18.17
2019-05-21T10:16:32.132Z,18.25
2019-05-21T10:19:04.729Z,18.52
2019-05-21T10:21:36.745Z,18.28
2019-05-21T10:24:08.412Z,18.13
2019-05-21T10:26:40.498Z,18.27
2019-05-21T10:29:12.521Z,18.01
2019-05-21T10:31:45.106Z,17.92
2019-05-21T10:34:17.301Z,17.93
2019-05-21T10:36:49.451Z,17.91
2019-05-21T10:39:21.466Z,18.11
2019-05-21T10:41:53.383Z,18.01
2019-05-21T10:44:25.699Z,17.87
2019-05-21T10:46:57.582Z,17.80
2019-05-21T10:49:32.059Z,17.94
2019-05-21T10:52:04.545Z,17.80
2019-05-21T10:54:36.792Z,17.88
2019-05-21T10:57:08.914Z,17.96
2019-05-21T10:59:40.877Z,17.82
2019-05-21T11:02:21.457Z,17.84
2019-05-21T11:04:59.712Z,17.85
2019-05-21T11:07:33.069Z,17.90
2019-05-21T11:10:08.343Z,17.83
2019-05-21T11:12:41.418Z,17.85
2019-05-21T11:15:14.676Z,17.56
2019-05-21T11:18:07.074Z,17.56
2019-05-21T11:20:20.624Z,17.62
2019-05-21T11:22:52.696Z,17.58
2019-05-21T11:25:26.571Z,17.60
2019-05-21T11:27:59.352Z,17.45
2019-05-21T11:30:33.235Z,17.35
2019-05-21T11:33:06.268Z,17.46
2019-05-21T11:35:38.303Z,17.40
2019-05-21T11:38:10.211Z,17.25
2019-05-21T11:40:42.814Z,17.27
2019-05-21T11:43:14.767Z,17.17
2019-05-21T11:45:46.663Z,17.07
2019-05-21T11:48:18.979Z,17.09
2019-05-21T11:50:51.277Z,16.84
2019-05-21T11:53:22.902Z,16.77
2019-05-21T11:55:54.975Z,16.62
2019-05-21T11:58:27.188Z,16.38
2019-05-21T12:00:59.223Z,16.31
2019-05-21T12:03:30.957Z,16.37
2019-05-21T12:06:02.696Z,16.40
2019-05-21T12:08:36.737Z,16.34
2019-05-21T12:11:08.895Z,16.33
2019-05-21T12:13:41.052Z,16.26
2019-05-21T12:16:12.932Z,16.20
2019-05-21T12:18:44.847Z,16.08
2019-05-21T12:21:17.233Z,16.10
2019-05-21T12:23:49.008Z,16.09
2019-05-21T12:26:20.969Z,16.09
2019-05-21T12:28:53.227Z,15.87
2019-05-21T12:31:25.258Z,15.93
2019-05-21T12:33:57.170Z,15.89
2019-05-21T12:36:29.081Z,15.66
2019-05-21T12:39:13.589Z,15.51
2019-05-21T12:41:35.072Z,15.31
2019-05-21T12:44:07.285Z,15.10
2019-05-21T12:46:39.023Z,15.04
2019-05-21T12:49:10.757Z,14.90
2019-05-21T12:51:44.978Z,14.84
2019-05-21T12:54:16.789Z,14.81
2019-05-21T12:56:48.589Z,14.86
2019-05-21T12:59:20.662Z,14.87
2019-05-21T13:01:52.699Z,14.87
2019-05-21T13:04:25.210Z,14.90
2019-05-21T13:06:57.472Z,14.92
2019-05-21T13:09:33.019Z,14.98
2019-05-21T13:12:03.741Z,14.99
2019-05-21T13:14:37.407Z,15.04
2019-05-21T13:17:09.027Z,15.03
2019-05-21T13:19:41.061Z,15.08
2019-05-21T13:22:12.875Z,15.13
2019-05-21T13:24:44.804Z,15.18
2019-05-21T13:27:16.950Z,15.24
2019-05-21T13:29:49.093Z,15.27
2019-05-21T13:32:21.338Z,15.34
2019-05-21T13:34:53.736Z,15.35
2019-05-21T13:37:25.607Z,15.37
2019-05-21T13:39:58.467Z,15.41
2019-05-21T13:42:30.205Z,15.38
2019-05-21T13:45:02.675Z,15.43
2019-05-21T13:47:36.012Z,15.37
2019-05-21T13:50:08.108Z,15.41
2019-05-21T13:52:39.936Z,15.30
2019-05-21T13:55:12.423Z,15.29
2019-05-21T13:57:44.227Z,15.22
2019-05-21T14:00:21.663Z,15.17
2019-05-21T14:02:53.685Z,15.14
2019-05-21T14:05:25.757Z,14.92
2019-05-21T14:07:58.291Z,14.85
2019-05-21T14:10:30.515Z,14.61
2019-05-21T14:13:02.749Z,14.52
2019-05-21T14:15:35.033Z,14.45
2019-05-21T14:18:07.264Z,14.37
2019-05-21T14:20:39.447Z,14.30
2019-05-21T14:23:11.795Z,14.27
2019-05-21T14:25:44.513Z,14.23
2019-05-21T14:28:16.439Z,14.18
2019-05-21T14:30:48.779Z,14.19
2019-05-21T14:33:20.930Z,14.13
2019-05-21T14:35:53.052Z,14.11
2019-05-21T14:38:24.788Z,14.11
2019-05-21T14:40:56.540Z,14.09
2019-05-21T14:43:29.478Z,14.11
2019-05-21T14:46:01.146Z,14.10
2019-05-21T14:48:32.876Z,14.06
2019-05-21T14:51:05.499Z,14.10
2019-05-21T14:53:37.498Z,14.14
2019-05-21T14:56:09.430Z,14.17
2019-05-21T14:58:41.191Z,14.19
2019-05-21T15:01:12.979Z,14.21
2019-05-21T15:03:44.773Z,14.27
2019-05-21T15:06:17.533Z,14.27
2019-05-21T15:08:50.374Z,14.29
2019-05-21T15:11:23.819Z,14.30
2019-05-21T15:13:57.516Z,14.35
2019-05-21T15:16:29.994Z,14.34
2019-05-21T15:19:05.120Z,14.32
2019-05-21T15:21:49.011Z,14.39
2019-05-21T15:24:21.540Z,14.40
2019-05-21T15:26:53.508Z,14.42
2019-05-21T15:29:30.658Z,14.44
2019-05-21T15:32:05.063Z,14.46
2019-05-21T15:34:37.919Z,14.46
2019-05-21T15:37:11.374Z,14.49
2019-05-21T15:39:46.466Z,14.46
2019-05-21T15:42:19.660Z,14.55
2019-05-21T15:44:51.802Z,14.56
2019-05-21T15:47:27.460Z,14.56
2019-05-21T15:50:01.265Z,14.57
2019-05-21T15:52:33.523Z,14.62
2019-05-21T15:55:07.819Z,14.61
2019-05-21T15:57:42.640Z,14.66
2019-05-21T16:00:17.959Z,14.62
2019-05-21T16:02:49.751Z,14.62
2019-05-21T16:05:21.454Z,14.58
2019-05-21T16:07:54.406Z,14.53
2019-05-21T16:10:28.019Z,14.49
2019-05-21T16:13:00.374Z,14.52
2019-05-21T16:15:32.573Z,14.50
2019-05-21T16:18:05.076Z,14.45
2019-05-21T16:20:42.101Z,14.41
2019-05-21T16:23:12.545Z,14.37
2019-05-21T16:25:46.964Z,14.32
2019-05-21T16:28:19.193Z,14.25
2019-05-21T16:30:51.395Z,14.21
2019-05-21T16:33:24.773Z,14.11
2019-05-21T16:35:57.510Z,14.06
2019-05-21T16:38:30.533Z,14.05
2019-05-21T16:41:02.493Z,14.00
2019-05-21T16:43:34.529Z,13.97
2019-05-21T16:46:06.074Z,14.01
2019-05-21T16:48:37.702Z,14.00
2019-05-21T16:51:13.528Z,14.02
2019-05-21T16:53:47.821Z,13.97
2019-05-21T16:56:20.595Z,14.00
2019-05-21T16:58:53.413Z,13.94
2019-05-21T17:01:27.208Z,13.96
2019-05-21T17:04:02.446Z,13.96
2019-05-21T17:06:35.799Z,13.92
2019-05-21T17:09:11.948Z,13.93
2019-05-21T17:11:59.000Z,13.92
2019-05-21T17:14:21.259Z,13.96
2019-05-21T17:16:53.893Z,13.89
2019-05-21T17:19:27.612Z,13.89
2019-05-21T17:21:59.939Z,13.90
2019-05-21T17:24:31.873Z,13.83
2019-05-21T17:27:03.581Z,13.83
2019-05-21T17:29:35.803Z,13.82
2019-05-21T17:32:08.203Z,13.80
2019-05-21T17:34:40.957Z,13.84
2019-05-21T17:37:13.835Z,13.89
2019-05-21T17:39:47.333Z,13.91
2019-05-21T17:42:20.353Z,13.92
2019-05-21T17:44:53.745Z,13.93
2019-05-21T17:47:26.938Z,13.90
2019-05-21T17:50:00.442Z,13.90
2019-05-21T17:52:32.785Z,13.89
2019-05-21T17:55:06.504Z,13.86
2019-05-21T17:57:41.462Z,13.85
2019-05-21T18:00:18.485Z,13.83
2019-05-21T18:02:52.669Z,13.86
2019-05-21T18:05:30.484Z,13.84
2019-05-21T18:08:05.561Z,13.85
2019-05-21T18:10:45.710Z,13.89
2019-05-21T18:13:20.540Z,13.89
2019-05-21T18:15:56.992Z,13.92
2019-05-21T18:18:30.402Z,13.96
2019-05-21T18:21:05.562Z,13.97
2019-05-21T18:23:39.026Z,13.95
2019-05-21T18:26:11.397Z,13.97
2019-05-21T18:28:44.364Z,13.98
2019-05-21T18:31:18.553Z,14.04
2019-05-21T18:33:50.998Z,14.05
2019-05-21T18:36:24.263Z,14.07
2019-05-21T18:38:58.584Z,14.12
2019-05-21T18:41:32.521Z,14.16
2019-05-21T18:44:07.609Z,14.11
2019-05-21T18:46:41.285Z,14.12
2019-05-21T18:49:14.042Z,14.09
2019-05-21T18:51:46.930Z,14.10
2019-05-21T18:54:19.499Z,14.08
2019-05-21T18:56:52.778Z,14.06
2019-05-21T18:59:26.618Z,14.02
2019-05-21T19:02:00.096Z,14.02
2019-05-21T19:04:32.815Z,14.01
2019-05-21T19:07:10.695Z,14.00
2019-05-21T19:09:41.743Z,14.02
2019-05-21T19:12:14.064Z,14.03
2019-05-21T19:14:48.915Z,13.97
2019-05-21T19:17:34.803Z,13.97
2019-05-21T19:19:55.672Z,13.95
2019-05-21T19:22:28.121Z,13.96
2019-05-21T19:25:04.362Z,13.92
2019-05-21T19:27:38.212Z,13.94
2019-05-21T19:30:12.919Z,13.95
2019-05-21T19:32:46.652Z,13.92
2019-05-21T19:35:18.636Z,13.90
2019-05-21T19:37:50.235Z,13.90
2019-05-21T19:40:23.388Z,13.93
2019-05-21T19:42:55.832Z,13.92
2019-05-21T19:45:29.702Z,13.93
2019-05-21T19:48:01.305Z,13.96
2019-05-21T19:50:33.606Z,13.91
2019-05-21T19:53:06.494Z,13.94
2019-05-21T19:55:41.092Z,13.97
2019-05-21T19:58:13.041Z,13.97
2019-05-21T20:00:53.890Z,13.98
2019-05-21T20:03:26.891Z,13.98
2019-05-21T20:05:59.290Z,13.98
2019-05-21T20:08:31.356Z,13.97
2019-05-21T20:11:04.009Z,13.95
2019-05-21T20:13:35.798Z,13.94
2019-05-21T20:16:08.094Z,13.92
2019-05-21T20:18:40.872Z,13.91
2019-05-21T20:21:14.230Z,13.88
2019-05-21T20:23:47.044Z,13.84
2019-05-21T20:26:21.568Z,13.81
2019-05-21T20:28:53.518Z,13.80
2019-05-21T20:31:25.605Z,13.74
2019-05-21T20:33:58.024Z,13.77
2019-05-21T20:36:30.183Z,13.77
2019-05-21T20:39:02.278Z,13.73
2019-05-21T20:41:37.049Z,13.72
2019-05-21T20:44:12.091Z,13.63
2019-05-21T20:46:44.159Z,13.59
2019-05-21T20:49:16.966Z,13.58
2019-05-21T20:51:48.850Z,13.53
2019-05-21T20:54:21.744Z,13.51
2019-05-21T20:56:54.833Z,13.49
2019-05-21T20:59:27.271Z,13.49
2019-05-21T21:01:59.995Z,13.47
2019-05-21T21:04:32.366Z,13.46
2019-05-21T21:07:05.362Z,13.42
2019-05-21T21:09:37.968Z,13.38
2019-05-21T21:12:11.686Z,13.38
2019-05-21T21:14:45.160Z,13.39
2019-05-21T21:17:17.084Z,13.32
2019-05-21T21:19:49.239Z,13.31
2019-05-21T21:22:21.080Z,13.30
2019-05-21T21:24:52.863Z,13.28
2019-05-21T21:27:26.308Z,13.27
2019-05-21T21:29:58.124Z,13.25
2019-05-21T21:32:30.001Z,13.26
2019-05-21T21:35:02.118Z,13.24
2019-05-21T21:37:36.651Z,13.23
2019-05-21T21:40:11.979Z,13.24
2019-05-21T21:42:44.785Z,13.24
2019-05-21T21:45:16.724Z,13.22
2019-05-21T21:47:49.232Z,13.23
2019-05-21T21:50:21.677Z,13.22
2019-05-21T21:52:54.457Z,13.20
2019-05-21T21:55:26.587Z,13.18
2019-05-21T21:57:58.626Z,13.18
2019-05-21T22:01:01.106Z,13.15
2019-05-21T22:03:37.082Z,13.18
2019-05-21T22:06:11.988Z,13.13
2019-05-21T22:08:44.556Z,13.12
2019-05-21T22:11:18.445Z,13.13
2019-05-21T22:13:50.555Z,13.14
2019-05-21T22:16:23.881Z,13.17
2019-05-21T22:18:55.855Z,13.19
2019-05-21T22:21:28.365Z,13.20
2019-05-21T22:24:00.251Z,13.16
2019-05-21T22:26:32.812Z,13.11
2019-05-21T22:29:04.778Z,13.10
2019-05-21T22:31:36.932Z,13.05
2019-05-21T22:34:09.201Z,13.00
2019-05-21T22:36:40.955Z,13.01
2019-05-21T22:39:24.120Z,12.95
2019-05-21T22:41:57.964Z,12.94
2019-05-21T22:44:30.034Z,12.92
2019-05-21T22:47:05.280Z,12.93
2019-05-21T22:49:37.204Z,12.91
2019-05-21T22:52:09.012Z,12.90
2019-05-21T22:54:42.367Z,12.90
2019-05-21T22:57:14.818Z,12.93
2019-05-21T22:59:47.229Z,12.95
2019-05-21T23:02:24.065Z,12.97
2019-05-21T23:04:56.440Z,12.96
2019-05-21T23:07:27.969Z,12.96
2019-05-21T23:10:00.062Z,12.95
2019-05-21T23:12:32.311Z,12.95
2019-05-21T23:15:05.088Z,12.94
2019-05-21T23:17:39.229Z,12.91
2019-05-21T23:20:30.363Z,12.92
2019-05-21T23:23:03.697Z,12.91
2019-05-21T23:25:36.626Z,12.89
2019-05-21T23:28:08.815Z,12.86
2019-05-21T23:30:40.736Z,12.88
2019-05-21T23:33:14.395Z,12.89
2019-05-21T23:35:46.372Z,12.88
2019-05-21T23:38:19.961Z,12.87
2019-05-21T23:40:52.173Z,12.86
2019-05-21T23:43:24.931Z,12.87
2019-05-21T23:45:57.347Z,12.90
2019-05-21T23:48:29.852Z,12.91
2019-05-21T23:51:01.712Z,12.90
2019-05-21T23:53:34.264Z,12.92
2019-05-21T23:56:06.278Z,12.92
2019-05-21T23:58:38.081Z,12.93
